createdAt,value
2022-12-31T00:00:20.036Z,100518.97
2022-12-31T00:02:22.647Z,100524.16
2022-12-31T00:04:25.617Z,100517.31
2022-12-31T00:06:34.362Z,100518.00
2022-12-31T00:08:36.365Z,100520.41
2022-12-31T00:10:47.844Z,100522.53
2022-12-31T00:12:50.858Z,100508.16
2022-12-31T00:14:54.775Z,100516.75
2022-12-31T00:16:56.652Z,100502.22
2022-12-31T00:19:00.772Z,100510.09
2022-12-31T00:21:10.227Z,100491.00
2022-12-31T00:23:15.262Z,100495.22
2022-12-31T00:25:17.218Z,100505.75
2022-12-31T00:27:19.191Z,100501.72
2022-12-31T00:29:21.115Z,100501.66
2022-12-31T00:31:26.294Z,100498.22
2022-12-31T00:33:28.251Z,100497.09
2022-12-31T00:35:31.022Z,100495.19
2022-12-31T00:37:35.286Z,100488.53
2022-12-31T00:39:38.225Z,100486.66
2022-12-31T00:41:40.571Z,100488.22
2022-12-31T00:43:42.762Z,100487.44
2022-12-31T00:45:45.703Z,100482.44
2022-12-31T00:47:47.658Z,100477.31
2022-12-31T00:49:50.555Z,100472.06
2022-12-31T00:51:53.481Z,100463.50
2022-12-31T00:53:58.324Z,100466.44
2022-12-31T00:56:02.922Z,100457.19
2022-12-31T00:58:04.845Z,100461.38
2022-12-31T01:00:07.881Z,100452.25
2022-12-31T01:02:10.204Z,100456.09
2022-12-31T01:04:15.680Z,100444.66
2022-12-31T01:06:18.574Z,100451.50
2022-12-31T01:08:24.348Z,100451.16
2022-12-31T01:10:46.263Z,100437.13
2022-12-31T01:12:50.256Z,100434.56
2022-12-31T01:14:52.236Z,100434.97
2022-12-31T01:16:56.300Z,100435.44
2022-12-31T01:19:01.198Z,100431.16
2022-12-31T01:21:05.185Z,100424.56
2022-12-31T01:23:08.261Z,100429.72
2022-12-31T01:25:10.266Z,100433.38
2022-12-31T01:27:12.154Z,100424.66
2022-12-31T01:29:14.960Z,100426.56
2022-12-31T01:31:19.174Z,100424.97
2022-12-31T01:33:21.217Z,100422.59
2022-12-31T01:35:23.685Z,100422.34
2022-12-31T01:37:26.587Z,100423.38
2022-12-31T01:39:29.474Z,100417.28
2022-12-31T01:41:34.764Z,100410.44
2022-12-31T01:43:44.543Z,100408.59
2022-12-31T01:45:52.115Z,100412.69
2022-12-31T01:47:58.611Z,100411.88
2022-12-31T01:50:31.475Z,100395.41
2022-12-31T01:52:41.566Z,100394.31
2022-12-31T01:55:17.186Z,100393.06
2022-12-31T01:57:22.468Z,100384.41
2022-12-31T01:59:28.203Z,100377.09
2022-12-31T02:01:33.331Z,100376.22
2022-12-31T02:03:35.912Z,100380.25
2022-12-31T02:06:03.055Z,100366.66
2022-12-31T02:08:07.830Z,100372.84
2022-12-31T02:10:09.806Z,100363.63
2022-12-31T02:12:12.790Z,100366.31
2022-12-31T02:14:25.868Z,100369.72
2022-12-31T02:16:59.683Z,100361.22
2022-12-31T02:19:38.065Z,100352.25
2022-12-31T02:21:42.776Z,100342.31
2022-12-31T02:24:05.555Z,100332.78
2022-12-31T02:26:31.785Z,100331.19
2022-12-31T02:28:34.699Z,100332.28
2022-12-31T02:30:37.751Z,100339.25
2022-12-31T02:32:47.895Z,100331.63
2022-12-31T02:34:59.163Z,100320.94
2022-12-31T02:37:06.549Z,100310.69
2022-12-31T02:39:12.032Z,100317.91
2022-12-31T02:41:38.076Z,100321.38
2022-12-31T02:43:47.078Z,100322.13
2022-12-31T02:46:03.937Z,100325.22
2022-12-31T02:48:23.904Z,100329.91
2022-12-31T02:50:39.058Z,100334.84
2022-12-31T02:52:59.475Z,100340.28
2022-12-31T02:55:07.207Z,100339.75
2022-12-31T02:57:11.791Z,100321.94
2022-12-31T02:59:52.158Z,100312.97
2022-12-31T03:02:14.606Z,100318.59
2022-12-31T03:04:36.403Z,100328.44
2022-12-31T03:06:42.348Z,100325.16
2022-12-31T03:09:02.629Z,100325.41
2022-12-31T03:11:24.509Z,100332.97
2022-12-31T03:13:26.399Z,100332.22
2022-12-31T03:15:34.353Z,100339.69
2022-12-31T03:17:36.262Z,100332.78
2022-12-31T03:19:57.966Z,100328.09
2022-12-31T03:22:19.733Z,100328.84
2022-12-31T03:24:42.181Z,100327.56
2022-12-31T03:26:44.071Z,100327.06
2022-12-31T03:28:49.004Z,100335.91
2022-12-31T03:30:59.931Z,100339.34
2022-12-31T03:33:04.696Z,100353.03
2022-12-31T03:35:08.645Z,100342.31
2022-12-31T03:37:10.576Z,100350.22
2022-12-31T03:39:14.677Z,100349.38
2022-12-31T03:41:16.593Z,100336.34
2022-12-31T03:43:20.567Z,100354.47
2022-12-31T03:45:24.423Z,100353.13
2022-12-31T03:47:27.568Z,100353.13
2022-12-31T03:49:29.486Z,100345.69
2022-12-31T03:51:31.391Z,100349.81
2022-12-31T03:53:35.058Z,100345.19
2022-12-31T03:55:37.318Z,100344.38
2022-12-31T03:57:39.540Z,100342.31
2022-12-31T03:59:43.540Z,100347.25
2022-12-31T04:01:46.560Z,100350.84
2022-12-31T04:03:48.622Z,100357.75
2022-12-31T04:05:55.295Z,100345.09
2022-12-31T04:07:58.261Z,100345.91
2022-12-31T04:10:03.635Z,100349.22
2022-12-31T04:12:05.994Z,100353.47
2022-12-31T04:14:08.169Z,100343.13
2022-12-31T04:16:10.320Z,100353.41
2022-12-31T04:18:12.827Z,100347.53
2022-12-31T04:20:16.106Z,100341.72
2022-12-31T04:22:18.430Z,100340.91
2022-12-31T04:24:20.510Z,100351.94
2022-12-31T04:26:22.539Z,100351.97
2022-12-31T04:28:24.492Z,100349.25
2022-12-31T04:30:27.356Z,100333.13
2022-12-31T04:32:29.255Z,100335.47
2022-12-31T04:34:31.413Z,100341.25
2022-12-31T04:36:33.447Z,100334.88
2022-12-31T04:38:35.370Z,100323.03
2022-12-31T04:40:58.404Z,100330.47
2022-12-31T04:43:00.384Z,100331.28
2022-12-31T04:45:02.522Z,100331.50
2022-12-31T04:47:04.543Z,100335.72
2022-12-31T04:49:06.646Z,100334.75
2022-12-31T04:51:08.688Z,100327.00
2022-12-31T04:53:10.517Z,100327.88
2022-12-31T04:55:12.667Z,100339.97
2022-12-31T04:57:14.619Z,100331.28
2022-12-31T04:59:16.559Z,100347.81
2022-12-31T05:01:18.617Z,100338.59
2022-12-31T05:03:23.346Z,100346.13
2022-12-31T05:05:25.320Z,100341.06
2022-12-31T05:07:28.310Z,100343.78
2022-12-31T05:09:31.212Z,100346.28
2022-12-31T05:11:33.441Z,100345.53
2022-12-31T05:13:39.044Z,100326.72
2022-12-31T05:15:43.383Z,100334.34
2022-12-31T05:17:45.333Z,100333.81
2022-12-31T05:19:47.263Z,100348.13
2022-12-31T05:22:09.105Z,100347.94
2022-12-31T05:24:10.903Z,100346.28
2022-12-31T05:26:12.729Z,100343.00
2022-12-31T05:28:15.649Z,100342.72
2022-12-31T05:30:18.964Z,100348.56
2022-12-31T05:32:20.837Z,100352.09
2022-12-31T05:34:22.672Z,100351.75
2022-12-31T05:36:25.673Z,100345.09
2022-12-31T05:38:28.637Z,100343.13
2022-12-31T05:40:38.526Z,100351.31
2022-12-31T05:42:40.557Z,100342.00
2022-12-31T05:44:42.452Z,100348.34
2022-12-31T05:46:44.607Z,100338.34
2022-12-31T05:48:46.521Z,100331.53
2022-12-31T05:50:49.766Z,100323.94
2022-12-31T05:52:51.685Z,100320.75
2022-12-31T05:54:53.609Z,100316.34
2022-12-31T05:56:56.589Z,100319.84
2022-12-31T05:58:58.606Z,100328.44
2022-12-31T06:01:00.521Z,100314.88
2022-12-31T06:03:03.651Z,100321.78
2022-12-31T06:05:06.070Z,100329.31
2022-12-31T06:07:08.081Z,100329.53
2022-12-31T06:09:13.126Z,100326.41
2022-12-31T06:11:15.084Z,100320.28
2022-12-31T06:13:16.961Z,100323.63
2022-12-31T06:15:19.941Z,100326.78
2022-12-31T06:17:22.692Z,100320.78
2022-12-31T06:19:24.986Z,100324.19
2022-12-31T06:21:26.883Z,100325.13
2022-12-31T06:23:30.034Z,100337.88
2022-12-31T06:25:32.349Z,100332.72
2022-12-31T06:27:35.328Z,100329.69
2022-12-31T06:29:37.560Z,100338.84
2022-12-31T06:31:39.467Z,100342.31
2022-12-31T06:33:42.218Z,100331.16
2022-12-31T06:35:45.147Z,100340.47
2022-12-31T06:37:48.105Z,100337.31
2022-12-31T06:39:50.244Z,100332.41
2022-12-31T06:41:53.295Z,100341.72
2022-12-31T06:43:55.240Z,100335.00
2022-12-31T06:46:01.131Z,100330.75
2022-12-31T06:48:03.111Z,100339.44
2022-12-31T06:50:05.510Z,100341.34
2022-12-31T06:52:07.523Z,100341.69
2022-12-31T06:54:10.462Z,100350.28
2022-12-31T06:56:18.466Z,100337.56
2022-12-31T06:58:21.741Z,100343.44
2022-12-31T07:00:24.064Z,100352.94
2022-12-31T07:02:45.922Z,100359.84
2022-12-31T07:05:12.171Z,100354.69
2022-12-31T07:07:34.355Z,100354.78
2022-12-31T07:09:58.178Z,100364.09
2022-12-31T07:12:28.963Z,100370.47
2022-12-31T07:14:52.946Z,100379.94
2022-12-31T07:17:12.456Z,100370.09
2022-12-31T07:19:57.913Z,100372.56
2022-12-31T07:22:15.465Z,100369.41
2022-12-31T07:24:23.553Z,100370.16
2022-12-31T07:26:55.973Z,100373.63
2022-12-31T07:29:17.928Z,100379.63
2022-12-31T07:31:57.033Z,100383.13
2022-12-31T07:34:40.911Z,100380.81
2022-12-31T07:37:27.448Z,100386.81
2022-12-31T07:40:02.612Z,100365.66
2022-12-31T07:42:39.420Z,100379.13
2022-12-31T07:45:20.860Z,100381.75
2022-12-31T07:47:28.900Z,100379.34
2022-12-31T07:49:44.265Z,100386.31
2022-12-31T07:51:46.533Z,100381.25
2022-12-31T07:53:49.409Z,100376.06
2022-12-31T07:56:02.576Z,100376.09
2022-12-31T07:58:29.126Z,100369.56
2022-12-31T08:00:32.727Z,100384.31
2022-12-31T08:02:53.529Z,100387.66
2022-12-31T08:05:15.281Z,100390.59
2022-12-31T08:07:32.162Z,100389.03
2022-12-31T08:09:47.963Z,100402.72
2022-12-31T08:11:59.964Z,100398.59
2022-12-31T08:14:20.165Z,100397.66
2022-12-31T08:16:22.518Z,100395.16
2022-12-31T08:18:37.963Z,100393.53
2022-12-31T08:21:11.426Z,100380.78
2022-12-31T08:23:32.541Z,100394.38
2022-12-31T08:25:53.336Z,100387.81
2022-12-31T08:28:25.413Z,100396.50
2022-12-31T08:31:01.260Z,100393.28
2022-12-31T08:33:44.255Z,100408.81
2022-12-31T08:36:22.220Z,100401.19
2022-12-31T08:38:42.059Z,100415.72
2022-12-31T08:41:02.743Z,100421.78
2022-12-31T08:43:27.886Z,100424.44
2022-12-31T08:46:01.708Z,100426.38
2022-12-31T08:48:11.576Z,100421.22
2022-12-31T08:50:16.176Z,100420.44
2022-12-31T08:52:25.186Z,100423.13
2022-12-31T08:54:27.898Z,100421.53
2022-12-31T08:56:51.412Z,100421.88
2022-12-31T08:59:30.461Z,100414.47
2022-12-31T09:01:58.857Z,100405.47
2022-12-31T09:04:30.617Z,100400.50
2022-12-31T09:06:37.885Z,100406.63
2022-12-31T09:08:39.776Z,100400.81
2022-12-31T09:10:57.036Z,100403.38
2022-12-31T09:13:19.695Z,100403.38
2022-12-31T09:15:32.913Z,100401.66
2022-12-31T09:17:49.278Z,100395.63
2022-12-31T09:19:52.541Z,100390.41
2022-12-31T09:21:56.725Z,100390.47
2022-12-31T09:24:09.289Z,100385.34
2022-12-31T09:26:48.562Z,100383.56
2022-12-31T09:28:57.059Z,100388.69
2022-12-31T09:31:40.685Z,100390.53
2022-12-31T09:33:52.578Z,100388.81
2022-12-31T09:35:57.980Z,100391.28
2022-12-31T09:38:15.029Z,100388.94
2022-12-31T09:40:48.062Z,100374.50
2022-12-31T09:43:22.238Z,100367.69
2022-12-31T09:45:32.952Z,100355.75
2022-12-31T09:47:58.570Z,100353.31
2022-12-31T09:50:37.874Z,100349.03
2022-12-31T09:53:19.240Z,100362.84
2022-12-31T09:55:34.208Z,100364.00
2022-12-31T09:58:02.654Z,100363.94
2022-12-31T10:00:15.752Z,100360.31
2022-12-31T10:03:01.084Z,100357.41
2022-12-31T10:05:21.922Z,100360.00
2022-12-31T10:07:48.784Z,100351.28
2022-12-31T10:10:15.102Z,100342.66
2022-12-31T10:12:50.545Z,100343.66
2022-12-31T10:15:14.059Z,100349.97
2022-12-31T10:17:46.407Z,100351.03
2022-12-31T10:20:18.278Z,100355.19
2022-12-31T10:22:38.957Z,100352.47
2022-12-31T10:25:00.808Z,100344.56
2022-12-31T10:27:28.851Z,100350.59
2022-12-31T10:29:55.188Z,100348.09
2022-12-31T10:32:23.725Z,100343.69
2022-12-31T10:34:53.884Z,100326.56
2022-12-31T10:37:17.541Z,100334.34
2022-12-31T10:39:44.627Z,100341.16
2022-12-31T10:42:01.091Z,100329.97
2022-12-31T10:44:26.106Z,100326.50
2022-12-31T10:47:12.107Z,100306.03
2022-12-31T10:49:48.650Z,100299.59
2022-12-31T10:52:45.602Z,100280.31
2022-12-31T10:55:18.820Z,100293.19
2022-12-31T10:58:04.274Z,100301.06
2022-12-31T11:00:12.510Z,100296.97
2022-12-31T11:02:30.660Z,100288.47
2022-12-31T11:04:52.389Z,100288.50
2022-12-31T11:07:29.655Z,100289.34
2022-12-31T11:10:05.325Z,100276.22
2022-12-31T11:12:34.965Z,100258.00
2022-12-31T11:15:03.834Z,100257.06
2022-12-31T11:17:28.652Z,100271.75
2022-12-31T11:19:55.438Z,100266.88
2022-12-31T11:22:44.995Z,100277.97
2022-12-31T11:24:46.868Z,100281.28
2022-12-31T11:27:06.749Z,100282.94
2022-12-31T11:29:15.621Z,100287.25
2022-12-31T11:31:21.264Z,100285.47
2022-12-31T11:33:40.630Z,100279.56
2022-12-31T11:35:50.800Z,100283.19
2022-12-31T11:38:09.063Z,100273.25
2022-12-31T11:40:54.405Z,100257.78
2022-12-31T11:43:23.867Z,100247.38
2022-12-31T11:45:37.795Z,100251.75
2022-12-31T11:50:32.714Z,100263.72
2022-12-31T11:52:52.170Z,100261.06
2022-12-31T11:55:03.328Z,100255.03
2022-12-31T11:57:23.524Z,100247.34
2022-12-31T11:59:25.428Z,100251.69
2022-12-31T12:01:36.308Z,100246.53
2022-12-31T12:03:43.440Z,100263.75
2022-12-31T12:05:45.590Z,100259.38
2022-12-31T12:07:49.410Z,100247.38
2022-12-31T12:09:54.685Z,100246.47
2022-12-31T12:12:01.988Z,100252.47
2022-12-31T12:14:21.892Z,100250.72
2022-12-31T12:16:26.323Z,100248.06
2022-12-31T12:18:42.707Z,100241.19
2022-12-31T12:20:49.353Z,100258.31
2022-12-31T12:22:54.589Z,100243.56
2022-12-31T12:25:16.207Z,100255.19
2022-12-31T12:27:27.204Z,100248.19
2022-12-31T12:29:36.779Z,100246.47
2022-12-31T12:31:39.487Z,100239.59
2022-12-31T12:33:46.880Z,100232.81
2022-12-31T12:35:48.992Z,100229.44
2022-12-31T12:38:03.507Z,100234.59
2022-12-31T12:40:20.214Z,100235.50
2022-12-31T12:42:23.237Z,100233.84
2022-12-31T12:44:25.150Z,100216.72
2022-12-31T12:46:49.417Z,100221.88
2022-12-31T12:48:56.471Z,100209.91
2022-12-31T12:51:00.286Z,100203.84
2022-12-31T12:53:20.546Z,100209.00
2022-12-31T12:55:54.626Z,100214.91
2022-12-31T12:59:07.364Z,100215.81
2022-12-31T13:01:31.410Z,100221.78
2022-12-31T13:04:32.439Z,100208.91
2022-12-31T13:06:28.167Z,100226.09
2022-12-31T13:08:49.737Z,100217.53
2022-12-31T13:11:29.923Z,100217.50
2022-12-31T13:13:46.089Z,100210.72
2022-12-31T13:16:25.879Z,100207.31
2022-12-31T13:19:20.092Z,100217.56
2022-12-31T13:21:37.277Z,100209.06
2022-12-31T13:23:53.934Z,100216.81
2022-12-31T13:26:15.422Z,100222.81
2022-12-31T13:28:19.401Z,100216.00
2022-12-31T13:30:25.405Z,100210.88
2022-12-31T13:33:00.627Z,100208.34
2022-12-31T13:35:18.826Z,100204.91
2022-12-31T13:37:34.076Z,100213.50
2022-12-31T13:39:42.158Z,100200.69
2022-12-31T13:42:07.471Z,100205.94
2022-12-31T13:44:19.627Z,100206.81
2022-12-31T13:46:32.782Z,100218.03
2022-12-31T13:48:40.692Z,100222.44
2022-12-31T13:51:21.295Z,100226.75
2022-12-31T13:53:30.767Z,100225.88
2022-12-31T13:55:38.477Z,100227.66
2022-12-31T13:58:06.750Z,100218.25
2022-12-31T14:00:20.160Z,100209.72
2022-12-31T14:02:55.922Z,100214.91
2022-12-31T14:05:05.200Z,100212.31
2022-12-31T14:07:18.638Z,100206.25
2022-12-31T14:09:27.206Z,100217.38
2022-12-31T14:12:07.806Z,100236.34
2022-12-31T14:14:18.882Z,100220.03
2022-12-31T14:16:56.169Z,100230.44
2022-12-31T14:19:31.032Z,100241.53
2022-12-31T14:21:45.227Z,100232.28
2022-12-31T14:23:59.972Z,100234.91
2022-12-31T14:26:19.028Z,100224.63
2022-12-31T14:28:58.128Z,100230.69
2022-12-31T14:31:28.265Z,100224.53
2022-12-31T14:33:55.453Z,100239.28
2022-12-31T14:36:15.401Z,100241.00
2022-12-31T14:38:47.893Z,100240.09
2022-12-31T14:41:17.242Z,100246.97
2022-12-31T14:43:22.058Z,100242.63
2022-12-31T14:45:42.288Z,100230.63
2022-12-31T14:47:57.449Z,100240.16
2022-12-31T14:50:12.439Z,100243.56
2022-12-31T14:52:28.918Z,100247.88
2022-12-31T14:54:38.345Z,100242.72
2022-12-31T14:56:44.526Z,100239.31
2022-12-31T14:58:56.274Z,100241.09
2022-12-31T15:01:09.085Z,100239.31
2022-12-31T15:03:14.009Z,100241.94
2022-12-31T15:05:19.943Z,100241.09
2022-12-31T15:07:37.340Z,100235.91
2022-12-31T15:09:51.708Z,100229.91
2022-12-31T15:12:15.320Z,100234.13
2022-12-31T15:14:20.290Z,100249.59
2022-12-31T15:16:57.776Z,100241.06
2022-12-31T15:19:05.546Z,100246.97
2022-12-31T15:21:26.148Z,100242.75
2022-12-31T15:23:39.162Z,100247.94
2022-12-31T15:25:48.640Z,100249.59
2022-12-31T15:27:50.929Z,100252.22
2022-12-31T15:29:53.989Z,100241.06
2022-12-31T15:31:59.216Z,100235.94
2022-12-31T15:34:05.761Z,100232.50
2022-12-31T15:36:20.054Z,100237.72
2022-12-31T15:38:33.281Z,100235.16
2022-12-31T15:40:47.682Z,100237.78
2022-12-31T15:43:03.053Z,100236.16
2022-12-31T15:45:07.859Z,100230.94
2022-12-31T15:47:09.823Z,100233.50
2022-12-31T15:49:18.413Z,100234.38
2022-12-31T15:51:26.326Z,100230.91
2022-12-31T15:53:44.296Z,100224.03
2022-12-31T15:55:53.892Z,100223.25
2022-12-31T15:58:03.527Z,100238.81
2022-12-31T16:00:20.063Z,100234.50
2022-12-31T16:02:25.993Z,100236.19
2022-12-31T16:04:30.087Z,100240.53
2022-12-31T16:06:37.585Z,100238.88
2022-12-31T16:08:44.087Z,100231.19
2022-12-31T16:10:46.679Z,100251.00
2022-12-31T16:12:49.104Z,100231.22
2022-12-31T16:14:55.266Z,100244.97
2022-12-31T16:17:00.682Z,100253.56
2022-12-31T16:19:02.742Z,100248.44
2022-12-31T16:21:04.797Z,100251.84
2022-12-31T16:23:22.864Z,100259.63
2022-12-31T16:25:31.090Z,100255.34
2022-12-31T16:27:35.817Z,100257.94
2022-12-31T16:29:42.076Z,100269.16
2022-12-31T16:32:05.061Z,100267.38
2022-12-31T16:34:13.725Z,100261.34
2022-12-31T16:36:23.702Z,100257.91
2022-12-31T16:38:37.143Z,100248.47
2022-12-31T16:40:40.701Z,100255.28
2022-12-31T16:42:47.433Z,100265.63
2022-12-31T16:44:51.278Z,100265.56
2022-12-31T16:46:57.550Z,100261.28
2022-12-31T16:49:06.525Z,100257.78
2022-12-31T16:51:17.263Z,100255.22
2022-12-31T16:53:24.092Z,100249.28
2022-12-31T16:55:29.057Z,100255.28
2022-12-31T16:57:33.120Z,100253.56
2022-12-31T16:59:47.421Z,100258.78
2022-12-31T17:01:56.279Z,100257.94
2022-12-31T17:04:01.277Z,100269.09
2022-12-31T17:06:06.289Z,100249.28
2022-12-31T17:08:38.726Z,100265.63
2022-12-31T17:10:42.681Z,100260.53
2022-12-31T17:13:27.419Z,100258.91
2022-12-31T17:15:29.333Z,100266.63
2022-12-31T17:17:37.634Z,100250.28
2022-12-31T17:19:45.531Z,100248.59
2022-12-31T17:21:48.832Z,100263.19
2022-12-31T17:24:04.853Z,100257.09
2022-12-31T17:26:15.558Z,100260.59
2022-12-31T17:28:33.298Z,100274.38
2022-12-31T17:30:40.555Z,100267.47
2022-12-31T17:32:43.585Z,100270.88
2022-12-31T17:34:50.221Z,100269.16
2022-12-31T17:37:10.572Z,100276.03
2022-12-31T17:39:19.199Z,100267.47
2022-12-31T17:41:28.216Z,100276.09
2022-12-31T17:43:35.370Z,100272.63
2022-12-31T17:45:39.053Z,100278.63
2022-12-31T17:47:48.311Z,100282.97
2022-12-31T17:49:50.409Z,100282.09
2022-12-31T17:51:53.524Z,100287.25
2022-12-31T17:53:55.505Z,100282.94
2022-12-31T17:56:03.079Z,100288.13
2022-12-31T17:58:06.927Z,100284.75
2022-12-31T18:00:17.752Z,100275.22
2022-12-31T18:02:20.120Z,100282.19
2022-12-31T18:04:22.195Z,100273.56
2022-12-31T18:06:27.536Z,100294.25
2022-12-31T18:08:31.633Z,100290.91
2022-12-31T18:10:37.043Z,100286.63
2022-12-31T18:12:39.565Z,100286.66
2022-12-31T18:14:44.795Z,100291.88
2022-12-31T18:16:48.419Z,100292.72
2022-12-31T18:18:50.450Z,100303.91
2022-12-31T18:20:59.635Z,100299.72
2022-12-31T18:23:01.594Z,100303.22
2022-12-31T18:25:04.545Z,100297.22
2022-12-31T18:27:15.600Z,100305.88
2022-12-31T18:29:20.132Z,100301.56
2022-12-31T18:31:28.932Z,100300.72
2022-12-31T18:33:32.083Z,100294.69
2022-12-31T18:36:07.272Z,100288.69
2022-12-31T18:37:58.416Z,100299.81
2022-12-31T18:40:00.354Z,100288.63
2022-12-31T18:42:03.331Z,100303.31
2022-12-31T18:44:06.741Z,100302.44
2022-12-31T18:46:12.757Z,100304.19
2022-12-31T18:48:16.541Z,100295.56
2022-12-31T18:50:18.596Z,100290.38
2022-12-31T18:52:23.249Z,100294.72
2022-12-31T18:54:25.164Z,100300.69
2022-12-31T18:56:27.564Z,100295.50
2022-12-31T18:58:30.500Z,100287.72
2022-12-31T19:00:32.786Z,100292.09
2022-12-31T19:02:36.972Z,100308.44
2022-12-31T19:04:40.007Z,100305.84
2022-12-31T19:06:45.970Z,100314.41
2022-12-31T19:08:48.177Z,100314.44
2022-12-31T19:10:52.378Z,100314.44
2022-12-31T19:12:55.512Z,100318.75
2022-12-31T19:14:57.497Z,100316.03
2022-12-31T19:19:08.341Z,100314.41
2022-12-31T19:21:17.446Z,100332.44
2022-12-31T19:23:21.792Z,100330.78
2022-12-31T19:25:33.955Z,100328.94
2022-12-31T19:27:36.089Z,100326.34
2022-12-31T19:29:42.205Z,100316.84
2022-12-31T19:31:44.169Z,100324.47
2022-12-31T19:33:51.365Z,100324.47
2022-12-31T19:35:53.405Z,100326.22
2022-12-31T19:37:56.495Z,100331.38
2022-12-31T19:40:02.585Z,100340.78
2022-12-31T19:42:04.923Z,100335.63
2022-12-31T19:44:19.881Z,100351.13
2022-12-31T19:46:22.295Z,100338.94
2022-12-31T19:48:32.249Z,100335.59
2022-12-31T19:50:47.050Z,100330.41
2022-12-31T19:52:53.532Z,100337.19
2022-12-31T19:54:57.569Z,100334.59
2022-12-31T19:56:59.588Z,100338.84
2022-12-31T19:59:12.109Z,100331.94
2022-12-31T20:01:22.905Z,100316.53
2022-12-31T20:05:44.824Z,100335.41
2022-12-31T20:07:55.589Z,100334.56
2022-12-31T20:09:57.597Z,100333.75
2022-12-31T20:12:07.553Z,100332.00
2022-12-31T20:14:10.785Z,100331.22
2022-12-31T20:16:21.040Z,100318.22
2022-12-31T20:18:38.709Z,100316.53
2022-12-31T20:20:49.244Z,100317.31
2022-12-31T20:23:11.675Z,100307.91
2022-12-31T20:25:13.626Z,100287.22
2022-12-31T20:27:18.768Z,100314.72
2022-12-31T20:29:20.771Z,100318.16
2022-12-31T20:31:34.619Z,100320.69
2022-12-31T20:33:36.674Z,100316.53
2022-12-31T20:35:42.370Z,100319.94
2022-12-31T20:37:50.314Z,100311.38
2022-12-31T20:39:57.977Z,100331.19
2022-12-31T20:42:06.168Z,100338.06
2022-12-31T20:44:14.387Z,100334.44
2022-12-31T20:46:19.872Z,100339.63
2022-12-31T20:48:22.943Z,100332.75
2022-12-31T20:50:24.896Z,100331.88
2022-12-31T20:52:29.166Z,100335.25
2022-12-31T20:54:32.291Z,100343.88
2022-12-31T20:56:37.847Z,100343.88
2022-12-31T20:58:42.905Z,100350.75
2022-12-31T21:00:53.247Z,100348.13
2022-12-31T21:03:14.351Z,100347.28
2022-12-31T21:05:24.322Z,100340.31
2022-12-31T21:07:32.363Z,100336.09
2022-12-31T21:09:37.410Z,100332.66
2022-12-31T21:11:59.323Z,100339.47
2022-12-31T21:14:03.365Z,100351.41
2022-12-31T21:16:06.653Z,100353.25
2022-12-31T21:18:09.733Z,100342.94
2022-12-31T21:20:12.527Z,100336.06
2022-12-31T21:22:15.619Z,100338.75
2022-12-31T21:24:23.571Z,100342.13
2022-12-31T21:26:27.975Z,100340.44
2022-12-31T21:28:30.940Z,100337.75
2022-12-31T21:30:32.946Z,100344.53
2022-12-31T21:32:43.807Z,100347.19
2022-12-31T21:35:00.235Z,100332.63
2022-12-31T21:37:11.694Z,100341.06
2022-12-31T21:39:20.539Z,100347.13
2022-12-31T21:41:46.953Z,100342.94
2022-12-31T21:43:56.551Z,100348.09
2022-12-31T21:46:07.717Z,100349.75
2022-12-31T21:48:23.479Z,100349.75
2022-12-31T21:50:27.542Z,100349.72
2022-12-31T21:52:36.500Z,100338.44
2022-12-31T21:55:01.161Z,100344.38
2022-12-31T21:57:11.229Z,100332.38
2022-12-31T21:59:33.919Z,100342.81
2022-12-31T22:01:57.406Z,100343.53
2022-12-31T22:04:01.475Z,100339.38
2022-12-31T22:06:16.352Z,100328.22
2022-12-31T22:08:36.617Z,100337.56
2022-12-31T22:10:50.339Z,100334.19
2022-12-31T22:12:56.741Z,100344.28
2022-12-31T22:15:15.671Z,100337.56
2022-12-31T22:17:18.535Z,100336.81
2022-12-31T22:19:24.943Z,100336.00
2022-12-31T22:21:27.839Z,100333.50
2022-12-31T22:23:30.611Z,100332.59
2022-12-31T22:25:42.862Z,100341.16
2022-12-31T22:28:11.458Z,100331.88
2022-12-31T22:30:10.208Z,100332.72
2022-12-31T22:32:12.413Z,100344.75
2022-12-31T22:34:14.407Z,100334.31
2022-12-31T22:36:20.120Z,100325.94
2022-12-31T22:38:22.546Z,100314.75
2022-12-31T22:40:25.631Z,100330.25
2022-12-31T22:42:28.532Z,100312.22
2022-12-31T22:44:30.636Z,100331.03
2022-12-31T22:46:33.397Z,100331.88
2022-12-31T22:48:38.039Z,100331.00
2022-12-31T22:50:40.031Z,100340.47
2022-12-31T22:52:42.127Z,100354.22
2022-12-31T22:54:46.151Z,100336.19
2022-12-31T22:56:48.227Z,100340.56
2022-12-31T22:58:51.204Z,100332.88
2022-12-31T23:00:53.846Z,100344.03
2022-12-31T23:02:56.789Z,100343.84
2022-12-31T23:05:15.481Z,100342.13
2022-12-31T23:07:18.477Z,100336.25
2022-12-31T23:09:39.904Z,100338.63
2022-12-31T23:11:43.382Z,100353.34
2022-12-31T23:14:04.012Z,100343.84
2022-12-31T23:16:25.583Z,100358.66
2022-12-31T23:18:46.050Z,100350.78
2022-12-31T23:21:06.239Z,100337.03
2022-12-31T23:23:16.374Z,100325.94
2022-12-31T23:25:18.495Z,100317.31
2022-12-31T23:27:20.550Z,100319.03
2022-12-31T23:29:22.590Z,100323.47
2022-12-31T23:31:28.882Z,100331.13
2022-12-31T23:33:30.866Z,100332.59
2022-12-31T23:35:33.065Z,100338.84
2022-12-31T23:37:36.056Z,100342.13
2022-12-31T23:39:40.168Z,100340.38
2022-12-31T23:41:43.232Z,100352.53
2022-12-31T23:43:45.679Z,100334.66
2022-12-31T23:45:52.042Z,100328.59
2022-12-31T23:47:53.983Z,100325.00
2022-12-31T23:49:55.993Z,100324.16
2022-12-31T23:51:58.991Z,100321.59
2022-12-31T23:54:01.191Z,100331.94
2022-12-31T23:56:16.197Z,100339.63
2022-12-31T23:58:22.147Z,100338.75
